sensor_id;sensor_type;location;lat;lon;timestamp;P1;durP1;ratioP1;P2;durP2;ratioP2
14348;SDS011;7258;50.376;8.742;2022-12-10T00:01:25;28.33;;;20.53;;
14348;SDS011;7258;50.376;8.742;2022-12-10T00:03:29;29.43;;;20.37;;
14348;SDS011;7258;50.376;8.742;2022-12-10T00:05:32;29.53;;;20.37;;
14348;SDS011;7258;50.376;8.742;2022-12-10T00:07:35;28.17;;;20.57;;
14348;SDS011;7258;50.376;8.742;2022-12-10T00:09:41;29.70;;;21.00;;
14348;SDS011;7258;50.376;8.742;2022-12-10T00:11:44;26.43;;;20.10;;
14348;SDS011;7258;50.376;8.742;2022-12-10T00:13:47;27.60;;;20.70;;
14348;SDS011;7258;50.376;8.742;2022-12-10T00:15:50;26.37;;;19.30;;
14348;SDS011;7258;50.376;8.742;2022-12-10T00:17:55;25.47;;;18.53;;
14348;SDS011;7258;50.376;8.742;2022-12-10T00:19:57;24.00;;;18.03;;
14348;SDS011;7258;50.376;8.742;2022-12-10T00:22:00;25.97;;;19.30;;
14348;SDS011;7258;50.376;8.742;2022-12-10T00:24:03;25.87;;;19.90;;
14348;SDS011;7258;50.376;8.742;2022-12-10T00:26:08;27.83;;;19.97;;
14348;SDS011;7258;50.376;8.742;2022-12-10T00:28:12;25.33;;;18.63;;
14348;SDS011;7258;50.376;8.742;2022-12-10T00:30:15;26.80;;;19.93;;
14348;SDS011;7258;50.376;8.742;2022-12-10T00:32:18;26.40;;;19.37;;
14348;SDS011;7258;50.376;8.742;2022-12-10T00:34:22;25.17;;;19.47;;
14348;SDS011;7258;50.376;8.742;2022-12-10T00:36:25;25.70;;;19.07;;
14348;SDS011;7258;50.376;8.742;2022-12-10T00:38:29;29.87;;;20.37;;
14348;SDS011;7258;50.376;8.742;2022-12-10T00:40:32;25.23;;;18.93;;
14348;SDS011;7258;50.376;8.742;2022-12-10T00:42:35;25.43;;;18.23;;
14348;SDS011;7258;50.376;8.742;2022-12-10T00:44:38;28.03;;;19.37;;
14348;SDS011;7258;50.376;8.742;2022-12-10T00:46:41;25.93;;;20.53;;
14348;SDS011;7258;50.376;8.742;2022-12-10T00:48:44;26.93;;;19.77;;
14348;SDS011;7258;50.376;8.742;2022-12-10T00:50:55;26.13;;;18.93;;
14348;SDS011;7258;50.376;8.742;2022-12-10T00:52:59;30.40;;;20.20;;
14348;SDS011;7258;50.376;8.742;2022-12-10T00:55:02;27.20;;;19.57;;
14348;SDS011;7258;50.376;8.742;2022-12-10T00:57:05;27.87;;;20.40;;
14348;SDS011;7258;50.376;8.742;2022-12-10T00:59:08;29.00;;;21.20;;
14348;SDS011;7258;50.376;8.742;2022-12-10T01:01:12;31.10;;;20.33;;
14348;SDS011;7258;50.376;8.742;2022-12-10T01:03:17;30.10;;;21.27;;
14348;SDS011;7258;50.376;8.742;2022-12-10T01:05:19;29.80;;;21.57;;
14348;SDS011;7258;50.376;8.742;2022-12-10T01:07:23;29.80;;;21.03;;
14348;SDS011;7258;50.376;8.742;2022-12-10T01:09:27;26.63;;;19.63;;
14348;SDS011;7258;50.376;8.742;2022-12-10T01:11:32;29.77;;;20.47;;
14348;SDS011;7258;50.376;8.742;2022-12-10T01:13:38;30.00;;;20.80;;
14348;SDS011;7258;50.376;8.742;2022-12-10T01:15:42;26.27;;;20.13;;
14348;SDS011;7258;50.376;8.742;2022-12-10T01:17:45;26.97;;;20.07;;
14348;SDS011;7258;50.376;8.742;2022-12-10T01:19:48;29.53;;;21.10;;
14348;SDS011;7258;50.376;8.742;2022-12-10T01:21:50;28.03;;;19.33;;
14348;SDS011;7258;50.376;8.742;2022-12-10T01:23:56;28.07;;;20.67;;
14348;SDS011;7258;50.376;8.742;2022-12-10T01:26:00;27.93;;;21.03;;
14348;SDS011;7258;50.376;8.742;2022-12-10T01:28:03;27.87;;;19.97;;
14348;SDS011;7258;50.376;8.742;2022-12-10T01:30:07;26.87;;;19.67;;
14348;SDS011;7258;50.376;8.742;2022-12-10T01:32:12;27.60;;;21.07;;
14348;SDS011;7258;50.376;8.742;2022-12-10T01:34:17;28.83;;;20.40;;
14348;SDS011;7258;50.376;8.742;2022-12-10T01:36:21;27.23;;;19.67;;
14348;SDS011;7258;50.376;8.742;2022-12-10T01:38:25;26.83;;;19.30;;
14348;SDS011;7258;50.376;8.742;2022-12-10T01:40:29;28.37;;;20.20;;
14348;SDS011;7258;50.376;8.742;2022-12-10T01:42:32;28.33;;;20.03;;
14348;SDS011;7258;50.376;8.742;2022-12-10T01:44:56;28.97;;;20.97;;
14348;SDS011;7258;50.376;8.742;2022-12-10T01:47:07;27.47;;;20.57;;
14348;SDS011;7258;50.376;8.742;2022-12-10T01:49:11;27.07;;;20.33;;
14348;SDS011;7258;50.376;8.742;2022-12-10T01:51:16;26.33;;;19.00;;
14348;SDS011;7258;50.376;8.742;2022-12-10T01:53:19;26.23;;;19.67;;
14348;SDS011;7258;50.376;8.742;2022-12-10T01:55:40;23.00;;;18.17;;
14348;SDS011;7258;50.376;8.742;2022-12-10T01:57:46;25.67;;;19.17;;
14348;SDS011;7258;50.376;8.742;2022-12-10T01:59:49;24.27;;;18.13;;
14348;SDS011;7258;50.376;8.742;2022-12-10T02:01:57;23.87;;;17.70;;
14348;SDS011;7258;50.376;8.742;2022-12-10T02:04:09;23.87;;;18.00;;
14348;SDS011;7258;50.376;8.742;2022-12-10T02:06:23;23.80;;;18.37;;
14348;SDS011;7258;50.376;8.742;2022-12-10T02:08:36;21.63;;;16.53;;
14348;SDS011;7258;50.376;8.742;2022-12-10T02:10:50;24.63;;;17.57;;
14348;SDS011;7258;50.376;8.742;2022-12-10T02:13:01;25.70;;;18.47;;
14348;SDS011;7258;50.376;8.742;2022-12-10T02:15:12;21.77;;;16.87;;
14348;SDS011;7258;50.376;8.742;2022-12-10T02:17:17;22.00;;;17.40;;
14348;SDS011;7258;50.376;8.742;2022-12-10T02:19:27;21.37;;;16.57;;
14348;SDS011;7258;50.376;8.742;2022-12-10T02:21:40;21.03;;;16.13;;
14348;SDS011;7258;50.376;8.742;2022-12-10T02:23:46;20.07;;;16.20;;
14348;SDS011;7258;50.376;8.742;2022-12-10T02:25:55;21.33;;;16.63;;
14348;SDS011;7258;50.376;8.742;2022-12-10T02:28:03;22.73;;;16.93;;
14348;SDS011;7258;50.376;8.742;2022-12-10T02:30:14;22.00;;;16.73;;
14348;SDS011;7258;50.376;8.742;2022-12-10T02:32:19;20.93;;;16.90;;
14348;SDS011;7258;50.376;8.742;2022-12-10T02:34:24;20.60;;;16.47;;
14348;SDS011;7258;50.376;8.742;2022-12-10T02:36:32;22.27;;;16.50;;
14348;SDS011;7258;50.376;8.742;2022-12-10T02:38:39;20.03;;;16.63;;
14348;SDS011;7258;50.376;8.742;2022-12-10T02:40:44;20.33;;;16.17;;
14348;SDS011;7258;50.376;8.742;2022-12-10T02:42:51;21.63;;;16.60;;
14348;SDS011;7258;50.376;8.742;2022-12-10T02:44:54;19.47;;;15.17;;
14348;SDS011;7258;50.376;8.742;2022-12-10T02:47:00;19.70;;;15.63;;
14348;SDS011;7258;50.376;8.742;2022-12-10T02:49:04;19.40;;;15.20;;
14348;SDS011;7258;50.376;8.742;2022-12-10T02:51:09;20.07;;;15.53;;
14348;SDS011;7258;50.376;8.742;2022-12-10T02:53:12;20.13;;;15.63;;
14348;SDS011;7258;50.376;8.742;2022-12-10T02:55:15;19.30;;;15.93;;
14348;SDS011;7258;50.376;8.742;2022-12-10T02:57:23;20.70;;;16.77;;
14348;SDS011;7258;50.376;8.742;2022-12-10T02:59:33;20.33;;;16.90;;
14348;SDS011;7258;50.376;8.742;2022-12-10T03:01:46;21.23;;;15.57;;
14348;SDS011;7258;50.376;8.742;2022-12-10T03:03:58;21.23;;;15.73;;
14348;SDS011;7258;50.376;8.742;2022-12-10T03:06:06;20.93;;;15.90;;
14348;SDS011;7258;50.376;8.742;2022-12-10T03:08:16;20.77;;;15.77;;
14348;SDS011;7258;50.376;8.742;2022-12-10T03:10:24;21.03;;;16.57;;
14348;SDS011;7258;50.376;8.742;2022-12-10T03:12:31;20.50;;;16.03;;
14348;SDS011;7258;50.376;8.742;2022-12-10T03:14:38;21.13;;;15.93;;
14348;SDS011;7258;50.376;8.742;2022-12-10T03:16:43;22.07;;;16.50;;
14348;SDS011;7258;50.376;8.742;2022-12-10T03:18:49;21.00;;;16.77;;
14348;SDS011;7258;50.376;8.742;2022-12-10T03:20:57;20.90;;;16.40;;
14348;SDS011;7258;50.376;8.742;2022-12-10T03:23:04;22.97;;;16.80;;
14348;SDS011;7258;50.376;8.742;2022-12-10T03:25:13;22.50;;;15.43;;
14348;SDS011;7258;50.376;8.742;2022-12-10T03:27:20;21.23;;;16.43;;
14348;SDS011;7258;50.376;8.742;2022-12-10T03:29:26;19.50;;;15.37;;
14348;SDS011;7258;50.376;8.742;2022-12-10T03:31:33;20.80;;;15.60;;
14348;SDS011;7258;50.376;8.742;2022-12-10T03:33:37;20.73;;;16.40;;
14348;SDS011;7258;50.376;8.742;2022-12-10T03:35:40;19.13;;;14.70;;
14348;SDS011;7258;50.376;8.742;2022-12-10T03:37:46;20.97;;;16.03;;
14348;SDS011;7258;50.376;8.742;2022-12-10T03:39:50;19.20;;;15.63;;
14348;SDS011;7258;50.376;8.742;2022-12-10T03:41:54;20.63;;;15.80;;
14348;SDS011;7258;50.376;8.742;2022-12-10T03:43:57;18.53;;;14.97;;
14348;SDS011;7258;50.376;8.742;2022-12-10T03:46:01;19.53;;;15.40;;
14348;SDS011;7258;50.376;8.742;2022-12-10T03:48:04;18.30;;;15.33;;
14348;SDS011;7258;50.376;8.742;2022-12-10T03:50:08;18.90;;;15.00;;
14348;SDS011;7258;50.376;8.742;2022-12-10T03:52:11;19.47;;;14.87;;
14348;SDS011;7258;50.376;8.742;2022-12-10T03:54:16;17.70;;;14.87;;
14348;SDS011;7258;50.376;8.742;2022-12-10T03:56:19;18.30;;;14.53;;
14348;SDS011;7258;50.376;8.742;2022-12-10T03:58:22;18.97;;;14.80;;
14348;SDS011;7258;50.376;8.742;2022-12-10T04:00:25;21.53;;;15.63;;
14348;SDS011;7258;50.376;8.742;2022-12-10T04:02:28;20.37;;;15.93;;
14348;SDS011;7258;50.376;8.742;2022-12-10T04:04:31;18.50;;;15.43;;
14348;SDS011;7258;50.376;8.742;2022-12-10T04:06:36;22.20;;;16.47;;
14348;SDS011;7258;50.376;8.742;2022-12-10T04:08:40;19.73;;;14.67;;
14348;SDS011;7258;50.376;8.742;2022-12-10T04:10:44;21.13;;;16.70;;
14348;SDS011;7258;50.376;8.742;2022-12-10T04:12:47;22.23;;;16.87;;
14348;SDS011;7258;50.376;8.742;2022-12-10T04:15:10;21.87;;;17.40;;
14348;SDS011;7258;50.376;8.742;2022-12-10T04:17:31;20.43;;;15.63;;
14348;SDS011;7258;50.376;8.742;2022-12-10T04:19:34;18.87;;;15.73;;
14348;SDS011;7258;50.376;8.742;2022-12-10T04:21:38;20.37;;;15.87;;
14348;SDS011;7258;50.376;8.742;2022-12-10T04:23:59;19.23;;;15.43;;
14348;SDS011;7258;50.376;8.742;2022-12-10T04:26:20;19.00;;;15.13;;
14348;SDS011;7258;50.376;8.742;2022-12-10T04:28:41;17.93;;;14.33;;
14348;SDS011;7258;50.376;8.742;2022-12-10T04:30:45;19.30;;;15.60;;
14348;SDS011;7258;50.376;8.742;2022-12-10T04:32:48;17.00;;;14.17;;
14348;SDS011;7258;50.376;8.742;2022-12-10T04:34:50;18.43;;;15.03;;
14348;SDS011;7258;50.376;8.742;2022-12-10T04:36:53;18.13;;;14.93;;
14348;SDS011;7258;50.376;8.742;2022-12-10T04:38:56;18.03;;;14.60;;
14348;SDS011;7258;50.376;8.742;2022-12-10T04:40:59;18.77;;;15.43;;
14348;SDS011;7258;50.376;8.742;2022-12-10T04:43:04;17.33;;;14.57;;
14348;SDS011;7258;50.376;8.742;2022-12-10T04:45:07;19.07;;;15.50;;
14348;SDS011;7258;50.376;8.742;2022-12-10T04:47:11;20.13;;;14.30;;
14348;SDS011;7258;50.376;8.742;2022-12-10T04:49:16;17.43;;;14.60;;
14348;SDS011;7258;50.376;8.742;2022-12-10T04:51:24;19.97;;;15.27;;
14348;SDS011;7258;50.376;8.742;2022-12-10T04:53:27;18.83;;;14.77;;
14348;SDS011;7258;50.376;8.742;2022-12-10T04:55:30;17.60;;;13.93;;
14348;SDS011;7258;50.376;8.742;2022-12-10T04:57:33;17.87;;;14.70;;
14348;SDS011;7258;50.376;8.742;2022-12-10T04:59:37;16.07;;;13.17;;
14348;SDS011;7258;50.376;8.742;2022-12-10T05:01:42;17.87;;;14.23;;
14348;SDS011;7258;50.376;8.742;2022-12-10T05:03:46;15.97;;;13.67;;
14348;SDS011;7258;50.376;8.742;2022-12-10T05:05:52;17.30;;;14.40;;
14348;SDS011;7258;50.376;8.742;2022-12-10T05:07:55;17.83;;;14.40;;
14348;SDS011;7258;50.376;8.742;2022-12-10T05:09:59;17.13;;;14.43;;
14348;SDS011;7258;50.376;8.742;2022-12-10T05:12:02;17.43;;;14.20;;
14348;SDS011;7258;50.376;8.742;2022-12-10T05:14:05;18.10;;;14.63;;
14348;SDS011;7258;50.376;8.742;2022-12-10T05:16:11;15.43;;;13.07;;
14348;SDS011;7258;50.376;8.742;2022-12-10T05:18:15;15.93;;;12.60;;
14348;SDS011;7258;50.376;8.742;2022-12-10T05:20:18;16.97;;;13.37;;
14348;SDS011;7258;50.376;8.742;2022-12-10T05:22:21;17.93;;;14.27;;
14348;SDS011;7258;50.376;8.742;2022-12-10T05:24:43;15.50;;;13.43;;
14348;SDS011;7258;50.376;8.742;2022-12-10T05:26:46;15.63;;;13.17;;
14348;SDS011;7258;50.376;8.742;2022-12-10T05:28:55;16.93;;;13.80;;
14348;SDS011;7258;50.376;8.742;2022-12-10T05:30:58;16.10;;;13.80;;
14348;SDS011;7258;50.376;8.742;2022-12-10T05:33:03;16.20;;;13.37;;
14348;SDS011;7258;50.376;8.742;2022-12-10T05:35:07;16.67;;;13.27;;
14348;SDS011;7258;50.376;8.742;2022-12-10T05:37:12;15.77;;;13.20;;
14348;SDS011;7258;50.376;8.742;2022-12-10T05:39:16;17.50;;;14.77;;
14348;SDS011;7258;50.376;8.742;2022-12-10T05:41:19;17.03;;;14.60;;
14348;SDS011;7258;50.376;8.742;2022-12-10T05:43:26;18.77;;;14.30;;
14348;SDS011;7258;50.376;8.742;2022-12-10T05:45:31;17.47;;;14.13;;
14348;SDS011;7258;50.376;8.742;2022-12-10T05:47:35;18.50;;;14.70;;
14348;SDS011;7258;50.376;8.742;2022-12-10T05:49:39;17.70;;;14.63;;
14348;SDS011;7258;50.376;8.742;2022-12-10T05:51:42;17.33;;;14.40;;
14348;SDS011;7258;50.376;8.742;2022-12-10T05:53:45;18.23;;;15.23;;
14348;SDS011;7258;50.376;8.742;2022-12-10T05:55:48;20.03;;;16.30;;
14348;SDS011;7258;50.376;8.742;2022-12-10T05:57:51;18.90;;;15.80;;
14348;SDS011;7258;50.376;8.742;2022-12-10T05:59:55;17.80;;;14.47;;
14348;SDS011;7258;50.376;8.742;2022-12-10T06:02:07;19.87;;;15.60;;
14348;SDS011;7258;50.376;8.742;2022-12-10T06:04:10;20.80;;;16.70;;
14348;SDS011;7258;50.376;8.742;2022-12-10T06:06:19;21.20;;;15.57;;
14348;SDS011;7258;50.376;8.742;2022-12-10T06:08:22;20.83;;;16.17;;
14348;SDS011;7258;50.376;8.742;2022-12-10T06:10:25;21.30;;;16.47;;
14348;SDS011;7258;50.376;8.742;2022-12-10T06:12:28;22.10;;;16.70;;
14348;SDS011;7258;50.376;8.742;2022-12-10T06:14:31;19.83;;;15.57;;
14348;SDS011;7258;50.376;8.742;2022-12-10T06:16:35;21.33;;;16.77;;
14348;SDS011;7258;50.376;8.742;2022-12-10T06:18:38;20.67;;;16.57;;
14348;SDS011;7258;50.376;8.742;2022-12-10T06:20:41;22.07;;;17.13;;
14348;SDS011;7258;50.376;8.742;2022-12-10T06:22:51;24.17;;;17.63;;
14348;SDS011;7258;50.376;8.742;2022-12-10T06:24:56;21.37;;;16.73;;
14348;SDS011;7258;50.376;8.742;2022-12-10T06:26:59;21.13;;;17.43;;
14348;SDS011;7258;50.376;8.742;2022-12-10T06:29:02;21.77;;;17.50;;
14348;SDS011;7258;50.376;8.742;2022-12-10T06:31:06;22.93;;;18.50;;
14348;SDS011;7258;50.376;8.742;2022-12-10T06:33:10;23.57;;;17.97;;
14348;SDS011;7258;50.376;8.742;2022-12-10T06:35:16;24.77;;;18.43;;
14348;SDS011;7258;50.376;8.742;2022-12-10T06:37:19;21.83;;;17.27;;
14348;SDS011;7258;50.376;8.742;2022-12-10T06:39:23;23.03;;;18.67;;
14348;SDS011;7258;50.376;8.742;2022-12-10T06:41:26;23.57;;;19.47;;
14348;SDS011;7258;50.376;8.742;2022-12-10T06:43:29;25.57;;;19.93;;
14348;SDS011;7258;50.376;8.742;2022-12-10T06:45:32;21.90;;;17.90;;
14348;SDS011;7258;50.376;8.742;2022-12-10T06:47:35;24.63;;;18.70;;
14348;SDS011;7258;50.376;8.742;2022-12-10T06:49:43;23.33;;;18.30;;
14348;SDS011;7258;50.376;8.742;2022-12-10T06:51:46;23.77;;;18.77;;
14348;SDS011;7258;50.376;8.742;2022-12-10T06:53:52;32.60;;;29.30;;
14348;SDS011;7258;50.376;8.742;2022-12-10T06:55:58;21.97;;;18.03;;
14348;SDS011;7258;50.376;8.742;2022-12-10T06:58:01;24.93;;;18.20;;
14348;SDS011;7258;50.376;8.742;2022-12-10T07:00:05;28.00;;;19.40;;
14348;SDS011;7258;50.376;8.742;2022-12-10T07:02:09;21.60;;;17.40;;
14348;SDS011;7258;50.376;8.742;2022-12-10T07:04:13;20.27;;;16.87;;
14348;SDS011;7258;50.376;8.742;2022-12-10T07:06:16;24.20;;;20.07;;
14348;SDS011;7258;50.376;8.742;2022-12-10T07:08:20;30.87;;;25.20;;
14348;SDS011;7258;50.376;8.742;2022-12-10T07:10:27;23.23;;;20.03;;
14348;SDS011;7258;50.376;8.742;2022-12-10T07:12:31;27.30;;;21.47;;
14348;SDS011;7258;50.376;8.742;2022-12-10T07:14:34;36.07;;;28.27;;
14348;SDS011;7258;50.376;8.742;2022-12-10T07:16:37;30.00;;;25.07;;
14348;SDS011;7258;50.376;8.742;2022-12-10T07:18:40;27.60;;;20.87;;
14348;SDS011;7258;50.376;8.742;2022-12-10T07:20:50;23.73;;;19.17;;
14348;SDS011;7258;50.376;8.742;2022-12-10T07:22:53;23.50;;;19.17;;
14348;SDS011;7258;50.376;8.742;2022-12-10T07:24:56;26.20;;;20.57;;
14348;SDS011;7258;50.376;8.742;2022-12-10T07:26:58;22.70;;;17.20;;
14348;SDS011;7258;50.376;8.742;2022-12-10T07:29:03;32.63;;;25.77;;
14348;SDS011;7258;50.376;8.742;2022-12-10T07:31:08;27.47;;;20.03;;
14348;SDS011;7258;50.376;8.742;2022-12-10T07:33:11;43.23;;;33.83;;
14348;SDS011;7258;50.376;8.742;2022-12-10T07:35:16;31.77;;;26.07;;
14348;SDS011;7258;50.376;8.742;2022-12-10T07:37:19;25.83;;;20.83;;
14348;SDS011;7258;50.376;8.742;2022-12-10T07:39:21;57.60;;;45.17;;
14348;SDS011;7258;50.376;8.742;2022-12-10T07:41:25;26.20;;;20.43;;
14348;SDS011;7258;50.376;8.742;2022-12-10T07:43:28;21.93;;;18.20;;
14348;SDS011;7258;50.376;8.742;2022-12-10T07:45:33;20.13;;;16.93;;
14348;SDS011;7258;50.376;8.742;2022-12-10T07:47:36;29.87;;;26.63;;
14348;SDS011;7258;50.376;8.742;2022-12-10T07:49:40;25.80;;;18.90;;
14348;SDS011;7258;50.376;8.742;2022-12-10T07:51:43;25.30;;;21.20;;
14348;SDS011;7258;50.376;8.742;2022-12-10T07:53:47;25.00;;;20.47;;
14348;SDS011;7258;50.376;8.742;2022-12-10T07:55:50;31.00;;;27.20;;
14348;SDS011;7258;50.376;8.742;2022-12-10T07:57:53;30.40;;;25.17;;
14348;SDS011;7258;50.376;8.742;2022-12-10T07:59:56;22.17;;;18.17;;
14348;SDS011;7258;50.376;8.742;2022-12-10T08:02:00;28.87;;;23.77;;
14348;SDS011;7258;50.376;8.742;2022-12-10T08:04:09;27.23;;;21.37;;
14348;SDS011;7258;50.376;8.742;2022-12-10T08:06:13;24.10;;;19.50;;
14348;SDS011;7258;50.376;8.742;2022-12-10T08:08:18;26.23;;;20.53;;
14348;SDS011;7258;50.376;8.742;2022-12-10T08:10:21;24.70;;;20.80;;
14348;SDS011;7258;50.376;8.742;2022-12-10T08:12:24;25.90;;;21.73;;
14348;SDS011;7258;50.376;8.742;2022-12-10T08:14:27;24.33;;;20.17;;
14348;SDS011;7258;50.376;8.742;2022-12-10T08:16:30;24.90;;;19.70;;
14348;SDS011;7258;50.376;8.742;2022-12-10T08:18:34;30.10;;;25.17;;
14348;SDS011;7258;50.376;8.742;2022-12-10T08:20:37;25.70;;;20.10;;
14348;SDS011;7258;50.376;8.742;2022-12-10T08:22:40;29.20;;;23.23;;
14348;SDS011;7258;50.376;8.742;2022-12-10T08:24:43;40.97;;;33.87;;
14348;SDS011;7258;50.376;8.742;2022-12-10T08:26:46;28.53;;;24.97;;
14348;SDS011;7258;50.376;8.742;2022-12-10T08:28:49;29.93;;;24.80;;
14348;SDS011;7258;50.376;8.742;2022-12-10T08:30:52;49.13;;;40.87;;
14348;SDS011;7258;50.376;8.742;2022-12-10T08:32:54;30.90;;;25.23;;
14348;SDS011;7258;50.376;8.742;2022-12-10T08:34:59;34.37;;;27.70;;
14348;SDS011;7258;50.376;8.742;2022-12-10T08:37:02;37.67;;;28.80;;
14348;SDS011;7258;50.376;8.742;2022-12-10T08:39:12;24.07;;;19.40;;
14348;SDS011;7258;50.376;8.742;2022-12-10T08:41:17;26.20;;;21.63;;
14348;SDS011;7258;50.376;8.742;2022-12-10T08:43:21;28.13;;;22.80;;
14348;SDS011;7258;50.376;8.742;2022-12-10T08:45:25;23.17;;;18.77;;
14348;SDS011;7258;50.376;8.742;2022-12-10T08:47:27;31.67;;;25.83;;
14348;SDS011;7258;50.376;8.742;2022-12-10T08:49:30;21.30;;;17.33;;
14348;SDS011;7258;50.376;8.742;2022-12-10T08:51:34;21.53;;;19.10;;
14348;SDS011;7258;50.376;8.742;2022-12-10T08:53:38;21.67;;;18.37;;
14348;SDS011;7258;50.376;8.742;2022-12-10T08:55:41;23.03;;;20.50;;
14348;SDS011;7258;50.376;8.742;2022-12-10T08:57:52;19.07;;;16.77;;
14348;SDS011;7258;50.376;8.742;2022-12-10T08:59:55;21.33;;;16.53;;
14348;SDS011;7258;50.376;8.742;2022-12-10T09:01:58;20.30;;;16.73;;
14348;SDS011;7258;50.376;8.742;2022-12-10T09:04:01;18.40;;;15.47;;
14348;SDS011;7258;50.376;8.742;2022-12-10T09:06:07;18.43;;;15.73;;
14348;SDS011;7258;50.376;8.742;2022-12-10T09:08:13;27.30;;;23.60;;
14348;SDS011;7258;50.376;8.742;2022-12-10T09:10:16;21.57;;;19.27;;
14348;SDS011;7258;50.376;8.742;2022-12-10T09:12:19;22.20;;;19.57;;
14348;SDS011;7258;50.376;8.742;2022-12-10T09:14:22;20.43;;;16.63;;
14348;SDS011;7258;50.376;8.742;2022-12-10T09:16:27;16.73;;;14.87;;
14348;SDS011;7258;50.376;8.742;2022-12-10T09:18:31;19.13;;;16.30;;
14348;SDS011;7258;50.376;8.742;2022-12-10T09:20:34;19.00;;;16.20;;
14348;SDS011;7258;50.376;8.742;2022-12-10T09:22:39;16.50;;;14.60;;
14348;SDS011;7258;50.376;8.742;2022-12-10T09:24:43;22.27;;;19.93;;
14348;SDS011;7258;50.376;8.742;2022-12-10T09:26:47;20.90;;;16.50;;
14348;SDS011;7258;50.376;8.742;2022-12-10T09:28:49;17.80;;;15.77;;
14348;SDS011;7258;50.376;8.742;2022-12-10T09:30:56;17.87;;;15.83;;
14348;SDS011;7258;50.376;8.742;2022-12-10T09:32:59;17.83;;;15.13;;
14348;SDS011;7258;50.376;8.742;2022-12-10T09:35:02;16.83;;;14.40;;
14348;SDS011;7258;50.376;8.742;2022-12-10T09:37:05;17.13;;;14.57;;
14348;SDS011;7258;50.376;8.742;2022-12-10T09:39:08;16.63;;;14.37;;
14348;SDS011;7258;50.376;8.742;2022-12-10T09:41:18;18.70;;;15.27;;
14348;SDS011;7258;50.376;8.742;2022-12-10T09:43:39;17.03;;;14.67;;
14348;SDS011;7258;50.376;8.742;2022-12-10T09:45:52;16.70;;;14.53;;
14348;SDS011;7258;50.376;8.742;2022-12-10T09:48:02;15.83;;;13.47;;
14348;SDS011;7258;50.376;8.742;2022-12-10T09:50:16;16.90;;;14.80;;
14348;SDS011;7258;50.376;8.742;2022-12-10T09:52:24;18.67;;;14.27;;
14348;SDS011;7258;50.376;8.742;2022-12-10T09:54:30;16.80;;;14.67;;
14348;SDS011;7258;50.376;8.742;2022-12-10T09:56:36;18.85;;;15.88;;
14348;SDS011;7258;50.376;8.742;2022-12-10T09:58:40;16.93;;;14.67;;
14348;SDS011;7258;50.376;8.742;2022-12-10T10:00:44;18.93;;;15.60;;
14348;SDS011;7258;50.376;8.742;2022-12-10T10:02:49;18.63;;;15.57;;
14348;SDS011;7258;50.376;8.742;2022-12-10T10:04:54;21.20;;;17.13;;
14348;SDS011;7258;50.376;8.742;2022-12-10T10:07:01;20.73;;;16.47;;
14348;SDS011;7258;50.376;8.742;2022-12-10T10:09:04;19.20;;;16.33;;
14348;SDS011;7258;50.376;8.742;2022-12-10T10:11:09;19.30;;;16.33;;
14348;SDS011;7258;50.376;8.742;2022-12-10T10:13:18;22.30;;;17.63;;
14348;SDS011;7258;50.376;8.742;2022-12-10T10:15:30;19.97;;;17.20;;
14348;SDS011;7258;50.376;8.742;2022-12-10T10:17:35;19.63;;;16.27;;
14348;SDS011;7258;50.376;8.742;2022-12-10T10:19:39;20.80;;;16.17;;
14348;SDS011;7258;50.376;8.742;2022-12-10T10:21:43;20.33;;;15.77;;
14348;SDS011;7258;50.376;8.742;2022-12-10T10:23:48;19.17;;;16.73;;
14348;SDS011;7258;50.376;8.742;2022-12-10T10:25:51;18.50;;;15.77;;
14348;SDS011;7258;50.376;8.742;2022-12-10T10:27:55;21.80;;;16.73;;
14348;SDS011;7258;50.376;8.742;2022-12-10T10:29:59;19.60;;;16.13;;
14348;SDS011;7258;50.376;8.742;2022-12-10T10:32:12;20.53;;;16.13;;
14348;SDS011;7258;50.376;8.742;2022-12-10T10:34:18;18.53;;;15.83;;
14348;SDS011;7258;50.376;8.742;2022-12-10T10:36:23;17.70;;;15.33;;
14348;SDS011;7258;50.376;8.742;2022-12-10T10:38:27;20.17;;;15.87;;
14348;SDS011;7258;50.376;8.742;2022-12-10T10:40:33;18.43;;;15.70;;
14348;SDS011;7258;50.376;8.742;2022-12-10T10:42:43;19.60;;;16.53;;
14348;SDS011;7258;50.376;8.742;2022-12-10T10:44:47;16.97;;;14.10;;
14348;SDS011;7258;50.376;8.742;2022-12-10T10:46:52;16.53;;;14.73;;
14348;SDS011;7258;50.376;8.742;2022-12-10T10:49:11;19.07;;;15.67;;
14348;SDS011;7258;50.376;8.742;2022-12-10T10:51:18;17.97;;;15.10;;
14348;SDS011;7258;50.376;8.742;2022-12-10T10:53:30;17.73;;;15.83;;
14348;SDS011;7258;50.376;8.742;2022-12-10T10:55:34;17.57;;;14.90;;
14348;SDS011;7258;50.376;8.742;2022-12-10T10:57:39;17.73;;;15.27;;
14348;SDS011;7258;50.376;8.742;2022-12-10T10:59:43;17.93;;;15.10;;
14348;SDS011;7258;50.376;8.742;2022-12-10T11:01:46;16.60;;;14.30;;
14348;SDS011;7258;50.376;8.742;2022-12-10T11:03:53;15.57;;;13.13;;
14348;SDS011;7258;50.376;8.742;2022-12-10T11:05:57;16.50;;;14.43;;
14348;SDS011;7258;50.376;8.742;2022-12-10T11:08:02;17.50;;;14.23;;
14348;SDS011;7258;50.376;8.742;2022-12-10T11:10:15;17.63;;;15.73;;
14348;SDS011;7258;50.376;8.742;2022-12-10T11:12:29;16.77;;;14.33;;
14348;SDS011;7258;50.376;8.742;2022-12-10T11:14:38;16.07;;;13.47;;
14348;SDS011;7258;50.376;8.742;2022-12-10T11:16:42;15.23;;;12.87;;
14348;SDS011;7258;50.376;8.742;2022-12-10T11:18:54;17.20;;;13.83;;
14348;SDS011;7258;50.376;8.742;2022-12-10T11:21:04;15.00;;;12.73;;
14348;SDS011;7258;50.376;8.742;2022-12-10T11:23:09;15.37;;;13.30;;
14348;SDS011;7258;50.376;8.742;2022-12-10T11:25:16;13.97;;;12.07;;
14348;SDS011;7258;50.376;8.742;2022-12-10T11:27:24;14.50;;;13.03;;
14348;SDS011;7258;50.376;8.742;2022-12-10T11:29:49;13.60;;;11.93;;
14348;SDS011;7258;50.376;8.742;2022-12-10T11:32:05;15.73;;;13.03;;
14348;SDS011;7258;50.376;8.742;2022-12-10T11:34:19;14.60;;;11.73;;
14348;SDS011;7258;50.376;8.742;2022-12-10T11:36:32;14.93;;;12.50;;
14348;SDS011;7258;50.376;8.742;2022-12-10T11:38:41;13.37;;;11.97;;
14348;SDS011;7258;50.376;8.742;2022-12-10T11:40:53;13.73;;;12.17;;
14348;SDS011;7258;50.376;8.742;2022-12-10T11:43:11;13.03;;;11.43;;
14348;SDS011;7258;50.376;8.742;2022-12-10T11:45:40;13.07;;;11.77;;
14348;SDS011;7258;50.376;8.742;2022-12-10T11:47:56;14.93;;;12.90;;
14348;SDS011;7258;50.376;8.742;2022-12-10T11:50:13;14.43;;;11.83;;
14348;SDS011;7258;50.376;8.742;2022-12-10T11:52:25;13.13;;;11.70;;
14348;SDS011;7258;50.376;8.742;2022-12-10T11:54:44;12.93;;;11.40;;
14348;SDS011;7258;50.376;8.742;2022-12-10T11:57:06;14.40;;;11.77;;
14348;SDS011;7258;50.376;8.742;2022-12-10T11:59:20;13.87;;;11.17;;
14348;SDS011;7258;50.376;8.742;2022-12-10T12:01:57;16.77;;;12.07;;
14348;SDS011;7258;50.376;8.742;2022-12-10T12:04:16;13.57;;;11.63;;
14348;SDS011;7258;50.376;8.742;2022-12-10T12:06:31;13.87;;;11.20;;
14348;SDS011;7258;50.376;8.742;2022-12-10T12:08:54;12.93;;;11.53;;
14348;SDS011;7258;50.376;8.742;2022-12-10T12:11:07;12.30;;;11.00;;
14348;SDS011;7258;50.376;8.742;2022-12-10T12:13:21;12.03;;;10.70;;
14348;SDS011;7258;50.376;8.742;2022-12-10T12:15:28;13.23;;;10.70;;
14348;SDS011;7258;50.376;8.742;2022-12-10T12:17:34;12.27;;;11.07;;
14348;SDS011;7258;50.376;8.742;2022-12-10T12:19:42;11.53;;;10.33;;
14348;SDS011;7258;50.376;8.742;2022-12-10T12:21:50;12.23;;;10.93;;
14348;SDS011;7258;50.376;8.742;2022-12-10T12:23:54;14.40;;;10.90;;
14348;SDS011;7258;50.376;8.742;2022-12-10T12:26:06;13.07;;;11.30;;
14348;SDS011;7258;50.376;8.742;2022-12-10T12:28:14;13.07;;;10.43;;